^^
Station Historical Data
Daily Summary for July 9, 2017 Units:  Metric    English   Both
« Previous Day
Next Day »
Daily Weekly Monthly Yearly Custom
  High: Low: Average:
Temperature: 21.1 °C 8.6 °C 16.3 °C
Dew Point: 6 °C -1.2 °C 2.2 °C
Humidity: 65% 28% 40%
Wind Speed: 19.5km/h 0km/h 8.5km/h
Wind Gust: 25.7km/h - -
Wind- - West
Pressure: 1018.8 hPa 1015.1 hPa -
Precipitation: 0 mm    
Historical Graphs
 
 
Tabular Data for July 9, 2017
Time Temperature Dew Point Pressure Wind Wind Speed Wind Gust Humidity Rainfall Rate (Hourly) solar Conditions
05:59 9.8 °C -0.4 °C 1015.5 hPa Calm     49% 0 mm 0.0 W/m2
06:02 9.6 °C -0.9 °C 1015.1 hPa Calm     48% 0 mm 0.0 W/m2
06:18 9.1 °C -1.1 °C 1015.1 hPa Calm     49% 0 mm 0.0 W/m2
06:34 8.6 °C -1.2 °C 1015.1 hPa Calm     50% 0 mm 0.0 W/m2
06:49 9.7 °C -0.8 °C 1015.5 hPa Calm     48% 0 mm 5.0 W/m2
06:58 9.2 °C -0.7 °C 1015.8 hPa Calm     50% 0 mm 14.0 W/m2
07:14 9.6 °C -0.6 °C 1015.8 hPa Calm     49% 0 mm 23.0 W/m2
07:32 9.8 °C -0.4 °C 1016.1 hPa Calm     49% 0 mm 76.0 W/m2
07:45 10.4 °C -0.4 °C 1016.1 hPa Calm     47% 0 mm 105.0 W/m2
07:54 11.5 °C 0.3 °C 1016.1 hPa Calm     46% 0 mm 156.0 W/m2
08:15 13.2 °C 0.6 °C 1016.5 hPa Calm     42% 0 mm 209.0 W/m2
08:26 13.7 °C 0.7 °C 1016.5 hPa Calm     41% 0 mm 237.0 W/m2
08:35 14.6 °C 0.8 °C 1016.5 hPa Calm     39% 0 mm 281.0 W/m2
08:56 15.5 °C 0.9 °C 1016.8 hPa Calm     37% 0 mm 320.0 W/m2
09:08 15.7 °C 1 °C 1016.8 hPa Calm     37% 0 mm 346.0 W/m2
09:24 16.3 °C 1.2 °C 1016.8 hPa Calm     36% 0 mm 376.0 W/m2
09:37 16.7 °C 1.9 °C 1016.8 hPa WNW 13 km/h 13 km/h 37% 0 mm 422.0 W/m2
09:58 16.3 °C 3.4 °C 1016.8 hPa WNW 17.7 km/h 20.9 km/h 42% 0 mm 441.0 W/m2
10:07 16.3 °C 3.7 °C 1016.8 hPa WNW 13 km/h 17.7 km/h 43% 0 mm 471.0 W/m2
10:28 16.5 °C 3.5 °C 1016.8 hPa WNW 16.3 km/h 17.7 km/h 42% 0 mm 497.0 W/m2
10:43 16.9 °C 3.6 °C 1016.8 hPa WNW 11.1 km/h 16.1 km/h 41% 0 mm 520.0 W/m2
10:58 17.4 °C 3.3 °C 1016.8 hPa WNW 6.4 km/h 9.7 km/h 39% 0 mm 540.0 W/m2
11:08 17.9 °C 3 °C 1016.8 hPa Calm   6.4 km/h 37% 0 mm 555.0 W/m2
11:28 18.4 °C 3.1 °C 1016.8 hPa Calm   4.8 km/h 36% 0 mm 566.0 W/m2
11:38 19.1 °C 3.3 °C 1016.5 hPa Calm     35% 0 mm 573.0 W/m2
11:59 19.6 °C 3.3 °C 1016.5 hPa WNW 9.7 km/h 16.1 km/h 34% 0 mm 573.0 W/m2
12:09 19.7 °C 3 °C 1016.1 hPa WNW 6.4 km/h 11.3 km/h 33% 0 mm 575.0 W/m2
12:29 19.9 °C 3.1 °C 1015.8 hPa WNW 9.7 km/h 12.9 km/h 33% 0 mm 568.0 W/m2
12:38 20.1 °C 3.3 °C 1015.8 hPa WNW 6.4 km/h 8 km/h 33% 0 mm 564.0 W/m2
12:47 20.2 °C 3 °C 1015.8 hPa WNW 4.7 km/h 9.7 km/h 32% 0 mm 557.0 W/m2
12:54 20.6 °C 3.3 °C 1015.5 hPa WNW 9.7 km/h 9.7 km/h 32% 0 mm 547.0 W/m2
13:10 20.8 °C 3 °C 1015.1 hPa WNW 13 km/h 19.3 km/h 31% 0 mm 533.0 W/m2
13:25 20.8 °C 3.5 °C 1015.1 hPa WNW 16.3 km/h 17.7 km/h 32% 0 mm 510.0 W/m2
13:40 20.9 °C 3.6 °C 1015.1 hPa WNW 13 km/h 19.3 km/h 32% 0 mm 485.0 W/m2
14:01 20.7 °C 3.4 °C 1015.1 hPa WNW 9.7 km/h 22.5 km/h 32% 0 mm 455.0 W/m2
14:15 20.7 °C 3.4 °C 1015.1 hPa WNW 11.1 km/h 12.9 km/h 32% 0 mm 429.0 W/m2
14:25 21.1 °C 3.3 °C 1015.1 hPa WNW 19.5 km/h 19.5 km/h 31% 0 mm 394.0 W/m2
14:45 20.8 °C 3 °C 1015.1 hPa WNW 16.3 km/h 19.3 km/h 31% 0 mm 362.0 W/m2
14:55 20.8 °C 3 °C 1015.1 hPa WNW 16.3 km/h 20.9 km/h 31% 0 mm 338.0 W/m2
15:00 20.7 °C 3 °C 1015.1 hPa West 16.3 km/h 24.1 km/h 31% 0 mm 311.0 W/m2
15:45 20.4 °C 1.8 °C 1015.1 hPa West 19.5 km/h 22.5 km/h 29% 0 mm 202.0 W/m2
15:56 20.4 °C 1.8 °C 1015.5 hPa West 19.5 km/h 19.5 km/h 29% 0 mm 169.0 W/m2
16:11 20.1 °C 1.5 °C 1015.5 hPa WSW 17.7 km/h 19.3 km/h 29% 0 mm 118.0 W/m2
16:26 19.8 °C 0.8 °C 1015.5 hPa WSW 13 km/h 19.3 km/h 28% 0 mm 77.0 W/m2
16:40 19.4 °C 0.9 °C 1015.5 hPa WSW 19.5 km/h 25.7 km/h 29% 0 mm 40.0 W/m2
16:51 18.9 °C 1.4 °C 1015.8 hPa WSW 19.5 km/h 20.9 km/h 31% 0 mm 19.0 W/m2
17:06 18.3 °C 1.3 °C 1015.8 hPa WSW 13 km/h 22.5 km/h 32% 0 mm 9.0 W/m2
17:23 17.7 °C 1.6 °C 1016.1 hPa SW 16.3 km/h 19.3 km/h 34% 0 mm 0.0 W/m2
17:37 17.2 °C 1.6 °C 1016.1 hPa SW 14.3 km/h 17.7 km/h 35% 0 mm 0.0 W/m2
17:46 16.8 °C 1.6 °C 1016.5 hPa SW 13 km/h 14.5 km/h 36% 0 mm 0.0 W/m2
18:07 16.4 °C 1.3 °C 1016.8 hPa SW 16.3 km/h 17.7 km/h 36% 0 mm 0.0 W/m2
18:37 15.7 °C 2.1 °C 1016.8 hPa SW 11.1 km/h 14.5 km/h 40% 0 mm 0.0 W/m2
19:08 14.9 °C 2.8 °C 1017.2 hPa SW 7.9 km/h 11.3 km/h 44% 0 mm 0.0 W/m2
19:23 14.5 °C 3 °C 1017.5 hPa SW 7.9 km/h 12.9 km/h 46% 0 mm 0.0 W/m2
19:53 14 °C 4 °C 1017.8 hPa SW 11.1 km/h 12.9 km/h 51% 0 mm 0.0 W/m2
20:08 13.8 °C 4.7 °C 1018.2 hPa SW 11.1 km/h 14.5 km/h 54% 0 mm 0.0 W/m2
20:20 13.7 °C 4.6 °C 1018.2 hPa SW 7.9 km/h 17.7 km/h 54% 0 mm 0.0 W/m2
21:04 12.9 °C 5.8 °C 1018.5 hPa SW 11.1 km/h 12.9 km/h 62% 0 mm 0.0 W/m2
21:33 12.6 °C 6 °C 1018.8 hPa SW 11.1 km/h 11.3 km/h 64% 0 mm 0.0 W/m2
21:40 12.2 °C 5.8 °C 1018.8 hPa Calm   6.4 km/h 65% 0 mm 0.0 W/m2
Canyon Roadhouse, Fishriver Canyon, Namibia
Compliments of Weather Underground - 2 mb